Aérodrome :
LOGIN :

S'inscrire | Disclaimer

   EN    FR    IT 

 










Légende :    VFR   VFR Marginal   IFR   IFR Intensif   IFR Très Intensif
Visi : 
Plafond : 
>= 8 km
>= 3000ft
5 à 8 km
1000 à 3000 ft
1500m à 5 km
500 à 1000 ft
800 à 1500m
200 à 500 ft
< 800m
< 200 ft
Symboles :   Orages  Brouillard  Fortes neiges  Fortes précipitations  Vent > 20 kt
SIGMETs :   Divers  Orages  Givrage  Turbulence  Onde Orograph.  Cendres Volcan.







- Altitude de l'aérodrome : 142 ft
- Code IATA : ALC


LEAL - Alicante

DERNIER METAR :
  • 171000Z 07004KT 030V120 9999 BKN030 13/06 Q1026 NOSIG

METARs EXPIRÉS :
  • 170930Z VRB02KT 9999 BKN032 13/04 Q1026 NOSIG
  • 170900Z VRB02KT 9999 SCT032 12/04 Q1026 NOSIG
  • 170830Z 29004KT 260V350 9999 SCT032 11/03 Q1026 NOSIG
  • 170800Z 27004KT 250V320 9999 FEW033 09/02 Q1026 NOSIG
  • 170730Z VRB02KT 9999 FEW025 08/02 Q1026 NOSIG

TAF TAF LEAL
Valide du 17 à 06h jusqu'au 18 à 06h UTC


170500Z 1706/1806 36006KT 9999 FEW020 TX17/1712Z TN09/1707Z
BECMG 1709/1712 06015KT
TEMPO 1710/1716 06013G23KT
BECMG 1720/1722 01006KT
Pas de NOTAMs connus pour ce terrain.



MET'MAP, la Météo Aéronautique d'un coup d'oeil ! - Copyright ORBIFLY Décembre 2007 - Disclaimer

ORBIFLY MET'MAP TEAM :

Programmation & Développement : Alexandra Zaïnal
Conception & Développement : Baudouin d'Aumeries
Co-Programmation & Développement : Marc-Olivier Méhu
Soutien technique & logistique : Manuel Goepfert

Contact : metmap@orbifly.com




SOURCES & CREDITS :

   NOAA